sensor_id;sensor_type;location;lat;lon;timestamp;P1;durP1;ratioP1;P2;durP2;ratioP2
1344;SDS011;15375;48.540;9.268;2024-01-30T00:02:10;9.40;;;7.57;;
1344;SDS011;15375;48.540;9.268;2024-01-30T00:04:36;10.60;;;8.00;;
1344;SDS011;15375;48.540;9.268;2024-01-30T00:07:01;9.80;;;8.50;;
1344;SDS011;15375;48.540;9.268;2024-01-30T00:09:26;11.30;;;8.30;;
1344;SDS011;15375;48.540;9.268;2024-01-30T00:11:52;12.00;;;8.63;;
1344;SDS011;15375;48.540;9.268;2024-01-30T00:14:17;9.60;;;8.50;;
1344;SDS011;15375;48.540;9.268;2024-01-30T00:16:43;13.43;;;8.23;;
1344;SDS011;15375;48.540;9.268;2024-01-30T00:19:09;11.13;;;8.60;;
1344;SDS011;15375;48.540;9.268;2024-01-30T00:21:34;9.10;;;7.23;;
1344;SDS011;15375;48.540;9.268;2024-01-30T00:24:00;9.27;;;8.10;;
1344;SDS011;15375;48.540;9.268;2024-01-30T00:26:25;7.90;;;6.97;;
1344;SDS011;15375;48.540;9.268;2024-01-30T00:28:50;12.50;;;8.30;;
1344;SDS011;15375;48.540;9.268;2024-01-30T00:31:16;13.53;;;8.17;;
1344;SDS011;15375;48.540;9.268;2024-01-30T00:33:41;10.10;;;7.67;;
1344;SDS011;15375;48.540;9.268;2024-01-30T00:36:08;10.70;;;7.53;;
1344;SDS011;15375;48.540;9.268;2024-01-30T00:38:34;11.00;;;7.70;;
1344;SDS011;15375;48.540;9.268;2024-01-30T00:41:00;13.33;;;8.63;;
1344;SDS011;15375;48.540;9.268;2024-01-30T00:43:27;14.23;;;8.50;;
1344;SDS011;15375;48.540;9.268;2024-01-30T00:45:52;14.07;;;8.70;;
1344;SDS011;15375;48.540;9.268;2024-01-30T00:48:18;9.67;;;8.40;;
1344;SDS011;15375;48.540;9.268;2024-01-30T00:50:43;13.03;;;8.60;;
1344;SDS011;15375;48.540;9.268;2024-01-30T00:53:09;13.07;;;8.30;;
1344;SDS011;15375;48.540;9.268;2024-01-30T00:55:34;10.10;;;7.53;;
1344;SDS011;15375;48.540;9.268;2024-01-30T00:58:00;12.33;;;9.73;;
1344;SDS011;15375;48.540;9.268;2024-01-30T01:00:25;10.67;;;7.93;;
1344;SDS011;15375;48.540;9.268;2024-01-30T01:02:54;13.00;;;7.27;;
1344;SDS011;15375;48.540;9.268;2024-01-30T01:05:22;9.27;;;7.20;;
1344;SDS011;15375;48.540;9.268;2024-01-30T01:07:47;11.60;;;7.80;;
1344;SDS011;15375;48.540;9.268;2024-01-30T01:10:13;13.10;;;7.40;;
1344;SDS011;15375;48.540;9.268;2024-01-30T01:12:39;10.20;;;6.73;;
1344;SDS011;15375;48.540;9.268;2024-01-30T01:15:05;11.23;;;6.53;;
1344;SDS011;15375;48.540;9.268;2024-01-30T01:17:34;10.70;;;6.40;;
1344;SDS011;15375;48.540;9.268;2024-01-30T01:19:59;8.63;;;6.37;;
1344;SDS011;15375;48.540;9.268;2024-01-30T01:22:25;9.83;;;7.07;;
1344;SDS011;15375;48.540;9.268;2024-01-30T01:24:50;10.40;;;7.10;;
1344;SDS011;15375;48.540;9.268;2024-01-30T01:27:16;10.83;;;6.70;;
1344;SDS011;15375;48.540;9.268;2024-01-30T01:29:41;8.23;;;7.17;;
1344;SDS011;15375;48.540;9.268;2024-01-30T01:32:06;7.50;;;5.90;;
1344;SDS011;15375;48.540;9.268;2024-01-30T01:34:32;9.63;;;6.53;;
1344;SDS011;15375;48.540;9.268;2024-01-30T01:36:57;10.17;;;6.73;;
1344;SDS011;15375;48.540;9.268;2024-01-30T01:39:22;7.27;;;6.07;;
1344;SDS011;15375;48.540;9.268;2024-01-30T01:41:48;8.17;;;6.30;;
1344;SDS011;15375;48.540;9.268;2024-01-30T01:44:14;8.20;;;6.20;;
1344;SDS011;15375;48.540;9.268;2024-01-30T01:46:39;7.33;;;6.63;;
1344;SDS011;15375;48.540;9.268;2024-01-30T01:49:05;7.67;;;6.33;;
1344;SDS011;15375;48.540;9.268;2024-01-30T01:51:33;7.40;;;6.57;;
1344;SDS011;15375;48.540;9.268;2024-01-30T01:54:01;10.13;;;7.17;;
1344;SDS011;15375;48.540;9.268;2024-01-30T01:56:29;9.20;;;7.70;;
1344;SDS011;15375;48.540;9.268;2024-01-30T01:58:56;9.23;;;7.77;;
1344;SDS011;15375;48.540;9.268;2024-01-30T02:01:25;11.10;;;7.63;;
1344;SDS011;15375;48.540;9.268;2024-01-30T02:03:52;10.57;;;7.90;;
1344;SDS011;15375;48.540;9.268;2024-01-30T02:06:18;9.47;;;8.13;;
1344;SDS011;15375;48.540;9.268;2024-01-30T02:08:44;10.57;;;8.70;;
1344;SDS011;15375;48.540;9.268;2024-01-30T02:11:09;10.13;;;7.93;;
1344;SDS011;15375;48.540;9.268;2024-01-30T02:13:36;11.17;;;7.53;;
1344;SDS011;15375;48.540;9.268;2024-01-30T02:16:02;9.70;;;7.77;;
1344;SDS011;15375;48.540;9.268;2024-01-30T02:18:27;11.30;;;7.87;;
1344;SDS011;15375;48.540;9.268;2024-01-30T02:20:53;11.30;;;7.87;;
1344;SDS011;15375;48.540;9.268;2024-01-30T02:23:21;15.67;;;7.90;;
1344;SDS011;15375;48.540;9.268;2024-01-30T02:25:49;11.50;;;8.03;;
1344;SDS011;15375;48.540;9.268;2024-01-30T02:28:14;7.37;;;6.63;;
1344;SDS011;15375;48.540;9.268;2024-01-30T02:30:42;8.80;;;7.10;;
1344;SDS011;15375;48.540;9.268;2024-01-30T02:33:08;9.57;;;7.17;;
1344;SDS011;15375;48.540;9.268;2024-01-30T02:35:33;8.57;;;7.20;;
1344;SDS011;15375;48.540;9.268;2024-01-30T02:37:59;8.70;;;7.60;;
1344;SDS011;15375;48.540;9.268;2024-01-30T02:40:24;9.03;;;7.23;;
1344;SDS011;15375;48.540;9.268;2024-01-30T02:42:50;8.00;;;7.20;;
1344;SDS011;15375;48.540;9.268;2024-01-30T02:45:15;11.80;;;6.67;;
1344;SDS011;15375;48.540;9.268;2024-01-30T02:47:41;9.17;;;7.07;;
1344;SDS011;15375;48.540;9.268;2024-01-30T02:50:06;11.80;;;6.90;;
1344;SDS011;15375;48.540;9.268;2024-01-30T02:52:32;10.73;;;7.70;;
1344;SDS011;15375;48.540;9.268;2024-01-30T02:54:57;10.33;;;7.70;;
1344;SDS011;15375;48.540;9.268;2024-01-30T02:57:23;7.90;;;6.20;;
1344;SDS011;15375;48.540;9.268;2024-01-30T02:59:48;10.23;;;7.37;;
1344;SDS011;15375;48.540;9.268;2024-01-30T03:02:13;9.23;;;6.33;;
1344;SDS011;15375;48.540;9.268;2024-01-30T03:04:40;8.20;;;6.90;;
1344;SDS011;15375;48.540;9.268;2024-01-30T03:07:06;9.67;;;6.90;;
1344;SDS011;15375;48.540;9.268;2024-01-30T03:09:31;9.07;;;6.30;;
1344;SDS011;15375;48.540;9.268;2024-01-30T03:11:57;9.13;;;6.57;;
1344;SDS011;15375;48.540;9.268;2024-01-30T03:14:22;8.00;;;6.23;;
1344;SDS011;15375;48.540;9.268;2024-01-30T03:16:47;8.27;;;6.87;;
1344;SDS011;15375;48.540;9.268;2024-01-30T03:19:13;9.77;;;7.73;;
1344;SDS011;15375;48.540;9.268;2024-01-30T03:21:38;6.73;;;5.83;;
1344;SDS011;15375;48.540;9.268;2024-01-30T03:24:03;8.47;;;6.47;;
1344;SDS011;15375;48.540;9.268;2024-01-30T03:26:29;7.10;;;5.87;;
1344;SDS011;15375;48.540;9.268;2024-01-30T03:28:54;11.23;;;7.40;;
1344;SDS011;15375;48.540;9.268;2024-01-30T03:31:20;10.90;;;7.60;;
1344;SDS011;15375;48.540;9.268;2024-01-30T03:33:45;8.33;;;7.10;;
1344;SDS011;15375;48.540;9.268;2024-01-30T03:36:10;10.43;;;7.87;;
1344;SDS011;15375;48.540;9.268;2024-01-30T03:38:36;8.57;;;7.77;;
1344;SDS011;15375;48.540;9.268;2024-01-30T03:41:01;14.97;;;8.33;;
1344;SDS011;15375;48.540;9.268;2024-01-30T03:43:26;7.80;;;7.00;;
1344;SDS011;15375;48.540;9.268;2024-01-30T03:45:52;12.17;;;8.70;;
1344;SDS011;15375;48.540;9.268;2024-01-30T03:48:18;11.70;;;7.90;;
1344;SDS011;15375;48.540;9.268;2024-01-30T03:50:44;10.40;;;7.07;;
1344;SDS011;15375;48.540;9.268;2024-01-30T03:53:09;10.20;;;7.57;;
1344;SDS011;15375;48.540;9.268;2024-01-30T03:55:34;11.83;;;7.30;;
1344;SDS011;15375;48.540;9.268;2024-01-30T03:58:00;12.53;;;7.80;;
1344;SDS011;15375;48.540;9.268;2024-01-30T04:00:25;9.60;;;7.43;;
1344;SDS011;15375;48.540;9.268;2024-01-30T04:02:51;8.70;;;7.80;;
1344;SDS011;15375;48.540;9.268;2024-01-30T04:05:16;10.50;;;8.13;;
1344;SDS011;15375;48.540;9.268;2024-01-30T04:07:42;8.13;;;6.77;;
1344;SDS011;15375;48.540;9.268;2024-01-30T04:10:07;8.87;;;7.00;;
1344;SDS011;15375;48.540;9.268;2024-01-30T04:12:34;9.03;;;7.77;;
1344;SDS011;15375;48.540;9.268;2024-01-30T04:15:00;10.83;;;7.77;;
1344;SDS011;15375;48.540;9.268;2024-01-30T04:17:25;9.67;;;7.10;;
1344;SDS011;15375;48.540;9.268;2024-01-30T04:19:50;9.20;;;6.80;;
1344;SDS011;15375;48.540;9.268;2024-01-30T04:22:16;8.77;;;6.33;;
1344;SDS011;15375;48.540;9.268;2024-01-30T04:24:41;9.10;;;6.90;;
1344;SDS011;15375;48.540;9.268;2024-01-30T04:27:06;7.83;;;5.90;;
1344;SDS011;15375;48.540;9.268;2024-01-30T04:29:32;10.60;;;6.80;;
1344;SDS011;15375;48.540;9.268;2024-01-30T04:31:58;6.87;;;6.17;;
1344;SDS011;15375;48.540;9.268;2024-01-30T04:34:23;7.57;;;6.80;;
1344;SDS011;15375;48.540;9.268;2024-01-30T04:36:49;7.90;;;6.40;;
1344;SDS011;15375;48.540;9.268;2024-01-30T04:39:14;7.83;;;6.67;;
1344;SDS011;15375;48.540;9.268;2024-01-30T04:41:40;9.87;;;7.17;;
1344;SDS011;15375;48.540;9.268;2024-01-30T04:44:05;10.37;;;7.00;;
1344;SDS011;15375;48.540;9.268;2024-01-30T04:46:30;8.93;;;6.40;;
1344;SDS011;15375;48.540;9.268;2024-01-30T04:48:56;7.97;;;6.20;;
1344;SDS011;15375;48.540;9.268;2024-01-30T04:51:21;10.97;;;6.67;;
1344;SDS011;15375;48.540;9.268;2024-01-30T04:53:47;9.07;;;6.17;;
1344;SDS011;15375;48.540;9.268;2024-01-30T04:56:12;8.33;;;5.70;;
1344;SDS011;15375;48.540;9.268;2024-01-30T04:58:37;8.33;;;7.20;;
1344;SDS011;15375;48.540;9.268;2024-01-30T05:01:03;8.83;;;6.50;;
1344;SDS011;15375;48.540;9.268;2024-01-30T05:03:28;12.97;;;7.97;;
1344;SDS011;15375;48.540;9.268;2024-01-30T05:05:53;10.27;;;6.90;;
1344;SDS011;15375;48.540;9.268;2024-01-30T05:08:19;8.87;;;6.83;;
1344;SDS011;15375;48.540;9.268;2024-01-30T05:10:44;9.47;;;6.70;;
1344;SDS011;15375;48.540;9.268;2024-01-30T05:13:09;9.20;;;6.57;;
1344;SDS011;15375;48.540;9.268;2024-01-30T05:15:35;7.90;;;5.97;;
1344;SDS011;15375;48.540;9.268;2024-01-30T05:18:00;11.80;;;8.20;;
1344;SDS011;15375;48.540;9.268;2024-01-30T05:20:26;12.27;;;7.50;;
1344;SDS011;15375;48.540;9.268;2024-01-30T05:22:53;8.87;;;8.00;;
1344;SDS011;15375;48.540;9.268;2024-01-30T05:25:19;11.60;;;7.57;;
1344;SDS011;15375;48.540;9.268;2024-01-30T05:27:44;9.13;;;6.97;;
1344;SDS011;15375;48.540;9.268;2024-01-30T05:30:10;9.80;;;6.83;;
1344;SDS011;15375;48.540;9.268;2024-01-30T05:32:35;11.47;;;7.80;;
1344;SDS011;15375;48.540;9.268;2024-01-30T05:35:01;8.10;;;6.57;;
1344;SDS011;15375;48.540;9.268;2024-01-30T05:37:26;8.30;;;5.77;;
1344;SDS011;15375;48.540;9.268;2024-01-30T05:39:52;12.00;;;7.30;;
1344;SDS011;15375;48.540;9.268;2024-01-30T05:42:18;8.27;;;6.50;;
1344;SDS011;15375;48.540;9.268;2024-01-30T05:44:43;10.40;;;7.00;;
1344;SDS011;15375;48.540;9.268;2024-01-30T05:47:08;9.37;;;6.73;;
1344;SDS011;15375;48.540;9.268;2024-01-30T05:49:34;6.70;;;6.10;;
1344;SDS011;15375;48.540;9.268;2024-01-30T05:52:00;13.10;;;7.20;;
1344;SDS011;15375;48.540;9.268;2024-01-30T05:54:27;9.87;;;7.23;;
1344;SDS011;15375;48.540;9.268;2024-01-30T05:56:52;6.83;;;5.80;;
1344;SDS011;15375;48.540;9.268;2024-01-30T05:59:17;8.20;;;6.13;;
1344;SDS011;15375;48.540;9.268;2024-01-30T06:01:46;11.03;;;6.60;;
1344;SDS011;15375;48.540;9.268;2024-01-30T06:04:12;8.23;;;6.10;;
1344;SDS011;15375;48.540;9.268;2024-01-30T06:06:38;8.20;;;7.10;;
1344;SDS011;15375;48.540;9.268;2024-01-30T06:09:03;9.77;;;7.53;;
1344;SDS011;15375;48.540;9.268;2024-01-30T06:11:29;9.03;;;6.57;;
1344;SDS011;15375;48.540;9.268;2024-01-30T06:13:54;9.17;;;7.13;;
1344;SDS011;15375;48.540;9.268;2024-01-30T06:16:19;9.40;;;6.90;;
1344;SDS011;15375;48.540;9.268;2024-01-30T06:18:46;9.40;;;7.07;;
1344;SDS011;15375;48.540;9.268;2024-01-30T06:21:12;9.23;;;6.90;;
1344;SDS011;15375;48.540;9.268;2024-01-30T06:23:37;10.20;;;7.30;;
1344;SDS011;15375;48.540;9.268;2024-01-30T06:26:03;9.60;;;6.23;;
1344;SDS011;15375;48.540;9.268;2024-01-30T06:28:28;8.20;;;6.30;;
1344;SDS011;15375;48.540;9.268;2024-01-30T06:30:54;11.33;;;7.13;;
1344;SDS011;15375;48.540;9.268;2024-01-30T06:33:19;10.20;;;6.00;;
1344;SDS011;15375;48.540;9.268;2024-01-30T06:35:45;10.30;;;7.53;;
1344;SDS011;15375;48.540;9.268;2024-01-30T06:38:11;9.63;;;7.37;;
1344;SDS011;15375;48.540;9.268;2024-01-30T06:40:36;8.50;;;7.00;;
1344;SDS011;15375;48.540;9.268;2024-01-30T06:43:02;12.20;;;7.70;;
1344;SDS011;15375;48.540;9.268;2024-01-30T06:45:29;11.53;;;7.70;;
1344;SDS011;15375;48.540;9.268;2024-01-30T06:47:54;9.90;;;6.07;;
1344;SDS011;15375;48.540;9.268;2024-01-30T06:50:20;11.10;;;7.33;;
1344;SDS011;15375;48.540;9.268;2024-01-30T06:52:45;9.60;;;6.47;;
1344;SDS011;15375;48.540;9.268;2024-01-30T06:55:11;8.27;;;6.33;;
1344;SDS011;15375;48.540;9.268;2024-01-30T06:57:36;11.00;;;7.30;;
1344;SDS011;15375;48.540;9.268;2024-01-30T07:00:02;7.30;;;6.07;;
1344;SDS011;15375;48.540;9.268;2024-01-30T07:02:27;9.67;;;6.87;;
1344;SDS011;15375;48.540;9.268;2024-01-30T07:04:53;10.60;;;8.23;;
1344;SDS011;15375;48.540;9.268;2024-01-30T07:07:18;10.07;;;6.90;;
1344;SDS011;15375;48.540;9.268;2024-01-30T07:09:43;8.17;;;6.63;;
1344;SDS011;15375;48.540;9.268;2024-01-30T07:12:09;9.03;;;6.60;;
1344;SDS011;15375;48.540;9.268;2024-01-30T07:14:35;10.20;;;6.80;;
1344;SDS011;15375;48.540;9.268;2024-01-30T07:17:00;7.27;;;6.20;;
1344;SDS011;15375;48.540;9.268;2024-01-30T07:19:26;10.23;;;7.73;;
1344;SDS011;15375;48.540;9.268;2024-01-30T07:21:51;6.90;;;6.20;;
1344;SDS011;15375;48.540;9.268;2024-01-30T07:24:17;7.90;;;7.00;;
1344;SDS011;15375;48.540;9.268;2024-01-30T07:26:42;10.83;;;6.90;;
1344;SDS011;15375;48.540;9.268;2024-01-30T07:29:07;12.47;;;8.20;;
1344;SDS011;15375;48.540;9.268;2024-01-30T07:31:33;12.20;;;6.70;;
1344;SDS011;15375;48.540;9.268;2024-01-30T07:33:58;10.73;;;7.90;;
1344;SDS011;15375;48.540;9.268;2024-01-30T07:36:23;9.40;;;7.87;;
1344;SDS011;15375;48.540;9.268;2024-01-30T07:38:49;9.00;;;6.70;;
1344;SDS011;15375;48.540;9.268;2024-01-30T07:41:14;9.80;;;6.93;;
1344;SDS011;15375;48.540;9.268;2024-01-30T07:43:39;8.30;;;6.80;;
1344;SDS011;15375;48.540;9.268;2024-01-30T07:46:05;8.23;;;6.60;;
1344;SDS011;15375;48.540;9.268;2024-01-30T07:48:31;9.10;;;7.10;;
1344;SDS011;15375;48.540;9.268;2024-01-30T07:50:59;9.40;;;7.40;;
1344;SDS011;15375;48.540;9.268;2024-01-30T07:53:25;13.17;;;7.20;;
1344;SDS011;15375;48.540;9.268;2024-01-30T07:55:52;9.13;;;6.27;;
1344;SDS011;15375;48.540;9.268;2024-01-30T07:58:17;9.77;;;7.03;;
1344;SDS011;15375;48.540;9.268;2024-01-30T08:00:43;6.80;;;5.90;;
1344;SDS011;15375;48.540;9.268;2024-01-30T08:03:09;9.27;;;7.60;;
1344;SDS011;15375;48.540;9.268;2024-01-30T08:05:34;11.20;;;8.00;;
1344;SDS011;15375;48.540;9.268;2024-01-30T08:07:59;14.40;;;6.47;;
1344;SDS011;15375;48.540;9.268;2024-01-30T08:10:25;6.70;;;5.93;;
1344;SDS011;15375;48.540;9.268;2024-01-30T08:12:50;9.13;;;6.00;;
1344;SDS011;15375;48.540;9.268;2024-01-30T08:15:15;10.60;;;7.13;;
1344;SDS011;15375;48.540;9.268;2024-01-30T08:17:41;9.53;;;6.17;;
1344;SDS011;15375;48.540;9.268;2024-01-30T08:20:06;8.30;;;6.30;;
1344;SDS011;15375;48.540;9.268;2024-01-30T08:22:33;9.07;;;5.80;;
1344;SDS011;15375;48.540;9.268;2024-01-30T08:24:58;11.20;;;6.00;;
1344;SDS011;15375;48.540;9.268;2024-01-30T08:27:24;11.43;;;7.20;;
1344;SDS011;15375;48.540;9.268;2024-01-30T08:29:49;8.73;;;6.30;;
1344;SDS011;15375;48.540;9.268;2024-01-30T08:32:15;8.00;;;5.87;;
1344;SDS011;15375;48.540;9.268;2024-01-30T08:34:40;8.40;;;6.97;;
1344;SDS011;15375;48.540;9.268;2024-01-30T08:37:06;11.00;;;7.40;;
1344;SDS011;15375;48.540;9.268;2024-01-30T08:39:31;9.70;;;6.20;;
1344;SDS011;15375;48.540;9.268;2024-01-30T08:41:56;9.23;;;6.50;;
1344;SDS011;15375;48.540;9.268;2024-01-30T08:44:22;12.97;;;7.90;;
1344;SDS011;15375;48.540;9.268;2024-01-30T08:46:48;7.60;;;6.70;;
1344;SDS011;15375;48.540;9.268;2024-01-30T08:49:16;8.03;;;7.23;;
1344;SDS011;15375;48.540;9.268;2024-01-30T08:51:41;8.53;;;6.90;;
1344;SDS011;15375;48.540;9.268;2024-01-30T08:54:06;7.63;;;6.33;;
1344;SDS011;15375;48.540;9.268;2024-01-30T08:56:32;8.43;;;6.20;;
1344;SDS011;15375;48.540;9.268;2024-01-30T08:58:57;14.60;;;6.43;;
1344;SDS011;15375;48.540;9.268;2024-01-30T09:01:23;9.90;;;7.17;;
1344;SDS011;15375;48.540;9.268;2024-01-30T09:03:48;11.20;;;7.00;;
1344;SDS011;15375;48.540;9.268;2024-01-30T09:06:13;8.13;;;5.90;;
1344;SDS011;15375;48.540;9.268;2024-01-30T09:08:39;14.27;;;6.93;;
1344;SDS011;15375;48.540;9.268;2024-01-30T09:11:14;7.93;;;5.97;;
1344;SDS011;15375;48.540;9.268;2024-01-30T09:13:40;6.30;;;5.70;;
1344;SDS011;15375;48.540;9.268;2024-01-30T09:16:06;8.80;;;5.10;;
1344;SDS011;15375;48.540;9.268;2024-01-30T09:18:32;8.53;;;5.87;;
1344;SDS011;15375;48.540;9.268;2024-01-30T09:20:57;10.10;;;6.90;;
1344;SDS011;15375;48.540;9.268;2024-01-30T09:23:23;8.50;;;7.60;;
1344;SDS011;15375;48.540;9.268;2024-01-30T09:25:49;9.50;;;7.53;;
1344;SDS011;15375;48.540;9.268;2024-01-30T09:28:15;11.90;;;8.60;;
1344;SDS011;15375;48.540;9.268;2024-01-30T09:30:40;11.37;;;7.47;;
1344;SDS011;15375;48.540;9.268;2024-01-30T09:33:06;9.60;;;7.90;;
1344;SDS011;15375;48.540;9.268;2024-01-30T09:35:32;11.63;;;8.10;;
1344;SDS011;15375;48.540;9.268;2024-01-30T09:37:58;8.90;;;8.00;;
1344;SDS011;15375;48.540;9.268;2024-01-30T09:40:24;10.33;;;8.77;;
1344;SDS011;15375;48.540;9.268;2024-01-30T09:42:50;8.93;;;8.13;;
1344;SDS011;15375;48.540;9.268;2024-01-30T09:45:17;8.70;;;7.67;;
1344;SDS011;15375;48.540;9.268;2024-01-30T09:47:44;11.33;;;8.63;;
1344;SDS011;15375;48.540;9.268;2024-01-30T09:50:11;10.90;;;8.77;;
1344;SDS011;15375;48.540;9.268;2024-01-30T09:52:38;11.20;;;8.80;;
1344;SDS011;15375;48.540;9.268;2024-01-30T09:55:04;9.93;;;7.90;;
1344;SDS011;15375;48.540;9.268;2024-01-30T09:57:30;13.67;;;9.93;;
1344;SDS011;15375;48.540;9.268;2024-01-30T09:59:56;10.50;;;7.83;;
1344;SDS011;15375;48.540;9.268;2024-01-30T10:02:22;13.83;;;9.23;;
1344;SDS011;15375;48.540;9.268;2024-01-30T10:04:48;12.27;;;8.60;;
1344;SDS011;15375;48.540;9.268;2024-01-30T10:07:14;9.57;;;7.93;;
1344;SDS011;15375;48.540;9.268;2024-01-30T10:09:40;10.27;;;8.30;;
1344;SDS011;15375;48.540;9.268;2024-01-30T10:12:05;9.43;;;7.73;;
1344;SDS011;15375;48.540;9.268;2024-01-30T10:14:31;15.33;;;8.40;;
1344;SDS011;15375;48.540;9.268;2024-01-30T10:16:57;9.20;;;7.30;;
1344;SDS011;15375;48.540;9.268;2024-01-30T10:19:23;10.90;;;7.17;;
1344;SDS011;15375;48.540;9.268;2024-01-30T10:21:48;7.57;;;6.80;;
1344;SDS011;15375;48.540;9.268;2024-01-30T10:24:14;7.63;;;6.83;;
1344;SDS011;15375;48.540;9.268;2024-01-30T10:26:39;10.40;;;8.10;;
1344;SDS011;15375;48.540;9.268;2024-01-30T10:29:05;10.37;;;7.07;;
1344;SDS011;15375;48.540;9.268;2024-01-30T10:31:30;8.10;;;7.30;;
1344;SDS011;15375;48.540;9.268;2024-01-30T10:33:56;11.13;;;6.77;;
1344;SDS011;15375;48.540;9.268;2024-01-30T10:36:21;7.57;;;6.80;;
1344;SDS011;15375;48.540;9.268;2024-01-30T10:38:59;7.93;;;6.77;;
1344;SDS011;15375;48.540;9.268;2024-01-30T10:41:27;8.00;;;7.20;;
1344;SDS011;15375;48.540;9.268;2024-01-30T10:44:02;7.20;;;6.00;;
1344;SDS011;15375;48.540;9.268;2024-01-30T10:46:41;8.73;;;6.80;;
1344;SDS011;15375;48.540;9.268;2024-01-30T10:49:11;8.20;;;6.70;;
1344;SDS011;15375;48.540;9.268;2024-01-30T10:51:38;10.27;;;6.90;;
1344;SDS011;15375;48.540;9.268;2024-01-30T10:54:04;10.17;;;7.63;;
1344;SDS011;15375;48.540;9.268;2024-01-30T10:56:30;9.43;;;7.40;;
1344;SDS011;15375;48.540;9.268;2024-01-30T10:58:58;9.50;;;6.97;;
1344;SDS011;15375;48.540;9.268;2024-01-30T11:01:24;8.43;;;7.03;;
1344;SDS011;15375;48.540;9.268;2024-01-30T11:03:51;10.63;;;7.60;;
1344;SDS011;15375;48.540;9.268;2024-01-30T11:06:17;7.90;;;7.00;;
1344;SDS011;15375;48.540;9.268;2024-01-30T11:08:46;7.87;;;6.20;;
1344;SDS011;15375;48.540;9.268;2024-01-30T11:11:24;9.40;;;8.27;;
1344;SDS011;15375;48.540;9.268;2024-01-30T11:13:50;9.80;;;8.53;;
1344;SDS011;15375;48.540;9.268;2024-01-30T11:16:15;8.00;;;7.20;;
1344;SDS011;15375;48.540;9.268;2024-01-30T11:18:40;8.40;;;7.50;;
1344;SDS011;15375;48.540;9.268;2024-01-30T11:21:06;11.10;;;9.00;;
1344;SDS011;15375;48.540;9.268;2024-01-30T11:23:32;10.90;;;7.93;;
1344;SDS011;15375;48.540;9.268;2024-01-30T11:25:58;10.30;;;7.97;;
1344;SDS011;15375;48.540;9.268;2024-01-30T11:28:25;10.33;;;8.07;;
1344;SDS011;15375;48.540;9.268;2024-01-30T11:31:06;12.73;;;7.80;;
1344;SDS011;15375;48.540;9.268;2024-01-30T11:33:32;9.33;;;7.20;;
1344;SDS011;15375;48.540;9.268;2024-01-30T11:35:59;7.53;;;6.53;;
1344;SDS011;15375;48.540;9.268;2024-01-30T11:38:25;16.67;;;10.77;;
1344;SDS011;15375;48.540;9.268;2024-01-30T11:40:55;14.73;;;10.40;;
1344;SDS011;15375;48.540;9.268;2024-01-30T11:43:22;16.97;;;10.97;;
1344;SDS011;15375;48.540;9.268;2024-01-30T11:45:48;21.00;;;16.37;;
1344;SDS011;15375;48.540;9.268;2024-01-30T11:48:14;13.47;;;11.07;;
1344;SDS011;15375;48.540;9.268;2024-01-30T11:50:39;9.57;;;7.47;;
1344;SDS011;15375;48.540;9.268;2024-01-30T11:53:05;11.77;;;7.80;;
1344;SDS011;15375;48.540;9.268;2024-01-30T11:55:31;11.13;;;8.20;;
1344;SDS011;15375;48.540;9.268;2024-01-30T11:57:58;8.53;;;6.23;;
1344;SDS011;15375;48.540;9.268;2024-01-30T12:00:23;8.03;;;5.93;;
1344;SDS011;15375;48.540;9.268;2024-01-30T12:02:49;6.07;;;5.00;;
1344;SDS011;15375;48.540;9.268;2024-01-30T12:05:16;6.60;;;5.13;;
1344;SDS011;15375;48.540;9.268;2024-01-30T12:07:44;6.40;;;5.77;;
1344;SDS011;15375;48.540;9.268;2024-01-30T12:10:11;8.20;;;5.73;;
1344;SDS011;15375;48.540;9.268;2024-01-30T12:12:38;7.73;;;5.60;;
1344;SDS011;15375;48.540;9.268;2024-01-30T12:15:06;7.40;;;5.93;;
1344;SDS011;15375;48.540;9.268;2024-01-30T12:17:32;8.83;;;6.47;;
1344;SDS011;15375;48.540;9.268;2024-01-30T12:22:38;6.67;;;6.07;;
1344;SDS011;15375;48.540;9.268;2024-01-30T12:25:25;8.47;;;6.57;;
1344;SDS011;15375;48.540;9.268;2024-01-30T12:27:49;8.50;;;7.17;;
1344;SDS011;15375;48.540;9.268;2024-01-30T12:30:16;7.70;;;6.10;;
1344;SDS011;15375;48.540;9.268;2024-01-30T12:32:46;10.20;;;6.37;;
1344;SDS011;15375;48.540;9.268;2024-01-30T12:35:15;9.73;;;6.03;;
1344;SDS011;15375;48.540;9.268;2024-01-30T12:37:45;7.53;;;5.53;;
1344;SDS011;15375;48.540;9.268;2024-01-30T12:40:12;9.73;;;6.17;;
1344;SDS011;15375;48.540;9.268;2024-01-30T12:42:39;8.13;;;5.87;;
1344;SDS011;15375;48.540;9.268;2024-01-30T12:45:07;8.80;;;6.63;;
1344;SDS011;15375;48.540;9.268;2024-01-30T12:47:33;7.70;;;6.63;;
1344;SDS011;15375;48.540;9.268;2024-01-30T12:49:58;8.53;;;5.73;;
1344;SDS011;15375;48.540;9.268;2024-01-30T12:52:24;9.47;;;5.97;;
1344;SDS011;15375;48.540;9.268;2024-01-30T12:54:50;8.07;;;6.37;;
1344;SDS011;15375;48.540;9.268;2024-01-30T12:57:16;10.07;;;5.70;;
1344;SDS011;15375;48.540;9.268;2024-01-30T12:59:42;12.90;;;6.97;;
1344;SDS011;15375;48.540;9.268;2024-01-30T13:02:09;8.00;;;5.30;;
1344;SDS011;15375;48.540;9.268;2024-01-30T13:04:34;5.20;;;4.70;;
1344;SDS011;15375;48.540;9.268;2024-01-30T13:07:00;6.50;;;5.30;;
1344;SDS011;15375;48.540;9.268;2024-01-30T13:09:26;6.27;;;4.70;;
1344;SDS011;15375;48.540;9.268;2024-01-30T13:11:51;6.53;;;4.77;;
1344;SDS011;15375;48.540;9.268;2024-01-30T13:14:17;6.13;;;4.80;;
1344;SDS011;15375;48.540;9.268;2024-01-30T13:16:43;7.33;;;4.73;;
1344;SDS011;15375;48.540;9.268;2024-01-30T13:19:08;6.80;;;4.20;;
1344;SDS011;15375;48.540;9.268;2024-01-30T13:21:33;5.03;;;4.53;;
1344;SDS011;15375;48.540;9.268;2024-01-30T13:23:59;6.30;;;4.73;;
1344;SDS011;15375;48.540;9.268;2024-01-30T13:26:24;6.20;;;4.70;;
1344;SDS011;15375;48.540;9.268;2024-01-30T13:28:50;7.40;;;5.07;;
1344;SDS011;15375;48.540;9.268;2024-01-30T13:31:16;5.27;;;4.77;;
1344;SDS011;15375;48.540;9.268;2024-01-30T13:33:41;6.33;;;4.63;;
1344;SDS011;15375;48.540;9.268;2024-01-30T13:36:07;4.90;;;4.33;;
1344;SDS011;15375;48.540;9.268;2024-01-30T13:38:34;5.80;;;5.30;;
1344;SDS011;15375;48.540;9.268;2024-01-30T13:41:00;7.33;;;4.20;;
1344;SDS011;15375;48.540;9.268;2024-01-30T13:43:25;8.80;;;5.30;;
1344;SDS011;15375;48.540;9.268;2024-01-30T13:45:51;6.60;;;4.50;;
1344;SDS011;15375;48.540;9.268;2024-01-30T13:48:16;5.30;;;4.23;;
1344;SDS011;15375;48.540;9.268;2024-01-30T13:50:42;8.17;;;4.63;;
1344;SDS011;15375;48.540;9.268;2024-01-30T13:53:07;5.93;;;4.97;;
1344;SDS011;15375;48.540;9.268;2024-01-30T13:55:33;6.43;;;4.53;;
1344;SDS011;15375;48.540;9.268;2024-01-30T13:57:59;9.80;;;4.73;;
1344;SDS011;15375;48.540;9.268;2024-01-30T14:00:26;6.10;;;5.30;;
1344;SDS011;15375;48.540;9.268;2024-01-30T14:02:51;7.33;;;5.60;;
1344;SDS011;15375;48.540;9.268;2024-01-30T14:05:19;5.93;;;5.17;;
1344;SDS011;15375;48.540;9.268;2024-01-30T14:07:46;5.67;;;4.60;;
1344;SDS011;15375;48.540;9.268;2024-01-30T14:10:12;4.70;;;3.93;;
1344;SDS011;15375;48.540;9.268;2024-01-30T14:12:37;7.97;;;5.73;;
1344;SDS011;15375;48.540;9.268;2024-01-30T14:15:02;5.90;;;5.30;;
1344;SDS011;15375;48.540;9.268;2024-01-30T14:17:28;6.60;;;5.50;;
1344;SDS011;15375;48.540;9.268;2024-01-30T14:19:53;6.27;;;4.90;;
1344;SDS011;15375;48.540;9.268;2024-01-30T14:22:18;6.87;;;4.83;;
1344;SDS011;15375;48.540;9.268;2024-01-30T14:24:44;7.87;;;4.87;;
1344;SDS011;15375;48.540;9.268;2024-01-30T14:27:09;5.20;;;4.53;;
1344;SDS011;15375;48.540;9.268;2024-01-30T14:29:35;7.70;;;7.03;;
1344;SDS011;15375;48.540;9.268;2024-01-30T14:32:01;6.47;;;5.90;;
1344;SDS011;15375;48.540;9.268;2024-01-30T14:34:26;5.93;;;5.23;;
1344;SDS011;15375;48.540;9.268;2024-01-30T14:36:52;6.10;;;5.23;;
1344;SDS011;15375;48.540;9.268;2024-01-30T14:39:18;9.83;;;5.00;;
1344;SDS011;15375;48.540;9.268;2024-01-30T14:41:43;8.03;;;4.97;;
1344;SDS011;15375;48.540;9.268;2024-01-30T14:44:09;10.37;;;4.50;;
1344;SDS011;15375;48.540;9.268;2024-01-30T14:46:35;17.13;;;14.53;;
1344;SDS011;15375;48.540;9.268;2024-01-30T14:49:01;15.47;;;9.30;;
1344;SDS011;15375;48.540;9.268;2024-01-30T14:51:30;7.10;;;5.00;;